Time,TemperatureF,DewpointF,PressureIn,WindDirection,WindDirectionDegrees,WindSpeedMPH,WindSpeedGustMPH,Humidity,HourlyPrecipIn,Conditions,Clouds,dailyrainin,SoftwareType,DateUTC
2013-11-27 00:02:00,13.6,6.0,30.26,NNW,347,2.0,6.0,71,0.00,,SKC,0.00,VWS V14.01,2013-11-27 06:02:00,
2013-11-27 00:07:00,13.6,6.0,30.26,NNE,19,3.0,11.0,71,0.00,,SKC,0.00,VWS V14.01,2013-11-27 06:07:00,
2013-11-27 00:12:00,13.4,5.8,30.26,NW,314,8.0,11.0,71,0.00,,SKC,0.00,VWS V14.01,2013-11-27 06:12:00,
2013-11-27 00:17:00,13.2,5.6,30.26,NNW,345,5.0,11.0,71,0.00,,SKC,0.00,VWS V14.01,2013-11-27 06:17:00,
2013-11-27 00:22:00,13.0,5.7,30.26,NW,319,7.0,11.0,72,0.00,,SKC,0.00,VWS V14.01,2013-11-27 06:22:00,
2013-11-27 00:27:00,13.1,5.8,30.26,North,354,4.0,11.0,72,0.00,,SKC,0.00,VWS V14.01,2013-11-27 06:27:00,
2013-11-27 00:32:00,13.2,5.9,30.26,NNW,336,3.0,4.0,72,0.00,,SKC,0.00,VWS V14.01,2013-11-27 06:32:00,
2013-11-27 00:37:00,13.4,5.8,30.26,NNW,330,1.0,5.0,71,0.00,,SKC,0.00,VWS V14.01,2013-11-27 06:37:00,
2013-11-27 00:42:00,13.4,5.8,30.25,North,350,2.0,7.0,71,0.00,,SKC,0.00,VWS V14.01,2013-11-27 06:42:00,
2013-11-27 00:47:00,13.3,5.7,30.26,NNE,16,3.0,9.0,71,0.00,,SKC,0.00,VWS V14.01,2013-11-27 06:47:00,
2013-11-27 00:52:00,13.2,5.6,30.26,NNE,16,4.0,9.0,71,0.00,,SKC,0.00,VWS V14.01,2013-11-27 06:52:00,
2013-11-27 00:57:00,12.8,5.2,30.26,NNW,329,3.0,10.0,71,0.00,,SKC,0.00,VWS V14.01,2013-11-27 06:57:00,
2013-11-27 01:02:00,11.9,4.6,30.26,WSW,245,0.0,2.0,72,0.00,,SKC,0.00,VWS V14.01,2013-11-27 07:02:00,
2013-11-27 01:07:00,11.4,4.7,30.26,West,262,1.0,4.0,74,0.00,,SKC,0.00,VWS V14.01,2013-11-27 07:07:00,
2013-11-27 01:12:00,11.2,4.8,30.26,NNW,333,3.0,6.0,75,0.00,,SKC,0.00,VWS V14.01,2013-11-27 07:12:00,
2013-11-27 01:17:00,11.4,4.7,30.26,NW,314,4.0,9.0,74,0.00,,SKC,0.00,VWS V14.01,2013-11-27 07:17:00,
2013-11-27 01:22:00,11.4,4.7,30.27,North,350,2.0,9.0,74,0.00,,SKC,0.00,VWS V14.01,2013-11-27 07:22:00,
2013-11-27 01:27:00,11.4,4.7,30.27,NW,311,4.0,9.0,74,0.00,,SKC,0.00,VWS V14.01,2013-11-27 07:27:00,
2013-11-27 01:32:00,11.4,4.7,30.26,NW,323,7.0,7.0,74,0.00,,SKC,0.00,VWS V14.01,2013-11-27 07:32:00,
2013-11-27 01:37:00,11.2,4.5,30.27,NW,307,6.0,7.0,74,0.00,,SKC,0.00,VWS V14.01,2013-11-27 07:37:00,
2013-11-27 01:42:00,11.1,4.4,30.26,NW,325,4.0,8.0,74,0.00,,SKC,0.00,VWS V14.01,2013-11-27 07:42:00,
2013-11-27 01:47:00,11.5,4.5,30.27,WNW,297,7.0,14.0,73,0.00,,SKC,0.00,VWS V14.01,2013-11-27 07:47:00,
2013-11-27 01:52:00,11.5,4.5,30.27,WNW,299,4.0,14.0,73,0.00,,SKC,0.00,VWS V14.01,2013-11-27 07:52:00,
2013-11-27 01:57:00,11.0,4.1,30.27,WNW,295,4.0,14.0,73,0.00,,SKC,0.00,VWS V14.01,2013-11-27 07:57:00,
2013-11-27 02:02:00,10.6,4.0,30.27,West,273,1.0,3.0,74,0.00,,SKC,0.00,VWS V14.01,2013-11-27 08:02:00,
2013-11-27 02:07:00,10.4,4.1,30.27,WNW,298,2.0,4.0,75,0.00,,SKC,0.00,VWS V14.01,2013-11-27 08:07:00,
2013-11-27 02:12:00,10.4,4.1,30.27,NW,314,4.0,5.0,75,0.00,,SKC,0.00,VWS V14.01,2013-11-27 08:12:00,
2013-11-27 02:17:00,10.4,4.1,30.27,NW,307,5.0,5.0,75,0.00,,SKC,0.00,VWS V14.01,2013-11-27 08:17:00,
2013-11-27 02:22:00,10.4,4.1,30.27,NW,309,3.0,6.0,75,0.00,,SKC,0.00,VWS V14.01,2013-11-27 08:22:00,
2013-11-27 02:27:00,10.3,4.0,30.27,NW,304,3.0,6.0,75,0.00,,SKC,0.00,VWS V14.01,2013-11-27 08:27:00,
2013-11-27 02:32:00,10.2,4.2,30.27,WNW,294,4.0,5.0,76,0.00,,SKC,0.00,VWS V14.01,2013-11-27 08:32:00,
2013-11-27 02:37:00,10.1,4.1,30.27,WNW,302,1.0,5.0,76,0.00,,SKC,0.00,VWS V14.01,2013-11-27 08:37:00,
2013-11-27 02:42:00,9.9,3.9,30.27,West,274,0.0,6.0,76,0.00,,SKC,0.00,VWS V14.01,2013-11-27 08:42:00,
2013-11-27 02:47:00,9.8,3.8,30.27,NW,321,4.0,6.0,76,0.00,,SKC,0.00,VWS V14.01,2013-11-27 08:47:00,
2013-11-27 02:52:00,9.7,4.0,30.27,NW,308,3.0,6.0,77,0.00,,SKC,0.00,VWS V14.01,2013-11-27 08:52:00,
2013-11-27 02:57:00,9.7,4.0,30.27,NW,323,4.0,6.0,77,0.00,,SKC,0.00,VWS V14.01,2013-11-27 08:57:00,
2013-11-27 03:02:00,9.6,3.8,30.27,WNW,301,3.0,4.0,77,0.00,,SKC,0.00,VWS V14.01,2013-11-27 09:02:00,
2013-11-27 03:07:00,9.5,3.8,30.27,WNW,293,1.0,6.0,77,0.00,,SKC,0.00,VWS V14.01,2013-11-27 09:07:00,
2013-11-27 03:12:00,9.5,3.8,30.28,NW,316,2.0,6.0,77,0.00,,SKC,0.00,VWS V14.01,2013-11-27 09:12:00,
2013-11-27 03:17:00,9.3,3.6,30.27,NW,315,2.0,6.0,77,0.00,,SKC,0.00,VWS V14.01,2013-11-27 09:17:00,
2013-11-27 03:22:00,9.2,3.7,30.27,WNW,297,3.0,6.0,78,0.00,,SKC,0.00,VWS V14.01,2013-11-27 09:22:00,
2013-11-27 03:27:00,9.3,3.8,30.27,NW,322,5.0,6.0,78,0.00,,SKC,0.00,VWS V14.01,2013-11-27 09:27:00,
2013-11-27 03:32:00,9.4,3.9,30.27,West,269,3.0,6.0,78,0.00,,SKC,0.00,VWS V14.01,2013-11-27 09:32:00,
2013-11-27 03:37:00,9.3,3.8,30.27,West,277,2.0,6.0,78,0.00,,SKC,0.00,VWS V14.01,2013-11-27 09:37:00,
2013-11-27 03:42:00,9.3,3.8,30.27,NW,304,1.0,6.0,78,0.00,,SKC,0.00,VWS V14.01,2013-11-27 09:42:00,
2013-11-27 03:47:00,9.4,3.9,30.27,NW,326,0.0,6.0,78,0.00,,SKC,0.00,VWS V14.01,2013-11-27 09:47:00,
2013-11-27 03:52:00,9.2,3.7,30.27,NW,324,1.0,6.0,78,0.00,,SKC,0.00,VWS V14.01,2013-11-27 09:52:00,
2013-11-27 03:57:00,9.2,3.7,30.27,NW,306,3.0,6.0,78,0.00,,SKC,0.00,VWS V14.01,2013-11-27 09:57:00,
2013-11-27 04:02:00,9.3,3.8,30.27,NW,314,3.0,3.0,78,0.00,,SKC,0.00,VWS V14.01,2013-11-27 10:02:00,
2013-11-27 04:07:00,9.3,3.8,30.28,NW,313,1.0,6.0,78,0.00,,SKC,0.00,VWS V14.01,2013-11-27 10:07:00,
2013-11-27 04:12:00,9.2,3.7,30.27,NNW,328,6.0,6.0,78,0.00,,SKC,0.00,VWS V14.01,2013-11-27 10:12:00,
2013-11-27 04:17:00,9.3,4.1,30.28,NW,305,4.0,6.0,79,0.00,,SKC,0.00,VWS V14.01,2013-11-27 10:17:00,
2013-11-27 04:22:00,9.4,3.9,30.28,West,270,3.0,9.0,78,0.00,,SKC,0.00,VWS V14.01,2013-11-27 10:22:00,
2013-11-27 04:27:00,9.3,3.8,30.28,NW,325,7.0,9.0,78,0.00,,SKC,0.00,VWS V14.01,2013-11-27 10:27:00,
2013-11-27 04:32:00,9.2,4.0,30.28,WNW,295,4.0,8.0,79,0.00,,,0.00,weatherlink.com 1.10,2013-11-27 10:32:00,
2013-11-27 04:37:00,9.1,3.9,30.29,NW,308,6.0,6.0,79,0.00,,SKC,0.00,VWS V14.01,2013-11-27 10:37:00,
2013-11-27 04:42:00,9.1,3.9,30.29,WNW,302,3.0,6.0,79,0.00,,SKC,0.00,VWS V14.01,2013-11-27 10:42:00,
2013-11-27 04:47:00,9.2,4.0,30.29,WNW,294,4.0,6.0,79,0.00,,SKC,0.00,VWS V14.01,2013-11-27 10:47:00,
2013-11-27 04:52:00,9.4,4.2,30.29,NW,310,5.0,8.0,79,0.00,,SKC,0.00,VWS V14.01,2013-11-27 10:52:00,
2013-11-27 04:57:00,9.4,4.2,30.29,NW,319,6.0,8.0,79,0.00,,SKC,0.00,VWS V14.01,2013-11-27 10:57:00,
2013-11-27 05:02:00,9.4,4.2,30.29,NW,318,3.0,5.0,79,0.00,,SKC,0.00,VWS V14.01,2013-11-27 11:02:00,
2013-11-27 05:07:00,9.3,4.1,30.29,NNW,336,2.0,7.0,79,0.00,,SKC,0.00,VWS V14.01,2013-11-27 11:07:00,
2013-11-27 05:12:00,9.1,3.9,30.29,WSW,248,0.0,7.0,79,0.00,,SKC,0.00,VWS V14.01,2013-11-27 11:12:00,
2013-11-27 05:17:00,8.9,3.7,30.29,West,259,1.0,7.0,79,0.00,,SKC,0.00,VWS V14.01,2013-11-27 11:17:00,
2013-11-27 05:22:00,8.6,3.7,30.29,NW,311,1.0,7.0,80,0.00,,SKC,0.00,VWS V14.01,2013-11-27 11:22:00,
2013-11-27 05:27:00,8.3,3.4,30.29,West,281,0.0,7.0,80,0.00,,SKC,0.00,VWS V14.01,2013-11-27 11:27:00,
2013-11-27 05:32:00,8.1,3.5,30.29,WNW,287,1.0,1.0,81,0.00,,SKC,0.00,VWS V14.01,2013-11-27 11:32:00,
2013-11-27 05:37:00,8.0,3.4,30.29,WNW,290,0.0,2.0,81,0.00,,SKC,0.00,VWS V14.01,2013-11-27 11:37:00,
2013-11-27 05:42:00,7.9,3.3,30.30,West,262,1.0,2.0,81,0.00,,SKC,0.00,VWS V14.01,2013-11-27 11:42:00,
2013-11-27 05:47:00,7.8,3.5,30.30,WNW,289,0.0,2.0,82,0.00,,SKC,0.00,VWS V14.01,2013-11-27 11:47:00,
2013-11-27 05:52:00,7.7,3.4,30.30,West,275,0.0,2.0,82,0.00,,SKC,0.00,VWS V14.01,2013-11-27 11:52:00,
2013-11-27 05:57:00,7.6,3.3,30.30,West,266,0.0,2.0,82,0.00,,SKC,0.00,VWS V14.01,2013-11-27 11:57:00,
2013-11-27 06:02:00,7.5,3.2,30.30,West,266,0.0,1.0,82,0.00,,SKC,0.00,VWS V14.01,2013-11-27 12:02:00,
2013-11-27 06:07:00,7.3,3.0,30.30,West,269,0.0,1.0,82,0.00,,SKC,0.00,VWS V14.01,2013-11-27 12:07:00,
2013-11-27 06:12:00,7.3,3.2,30.30,West,277,0.0,1.0,83,0.00,,SKC,0.00,VWS V14.01,2013-11-27 12:12:00,
2013-11-27 06:17:00,7.4,3.3,30.31,WNW,297,0.0,1.0,83,0.00,,SKC,0.00,VWS V14.01,2013-11-27 12:17:00,
2013-11-27 06:22:00,7.5,3.4,30.31,West,273,0.0,1.0,83,0.00,,SKC,0.00,VWS V14.01,2013-11-27 12:22:00,
2013-11-27 06:27:00,7.5,3.4,30.31,West,266,0.0,1.0,83,0.00,,SKC,0.00,VWS V14.01,2013-11-27 12:27:00,
2013-11-27 06:32:00,7.5,3.4,30.31,West,266,0.0,0.0,83,0.00,,SKC,0.00,VWS V14.01,2013-11-27 12:32:00,
2013-11-27 06:37:00,7.4,3.3,30.31,West,266,0.0,1.0,83,0.00,,SKC,0.00,VWS V14.01,2013-11-27 12:37:00,
2013-11-27 06:42:00,7.4,3.3,30.31,WNW,291,0.0,1.0,83,0.00,,SKC,0.00,VWS V14.01,2013-11-27 12:42:00,
2013-11-27 06:47:00,7.4,3.6,30.32,West,273,1.0,1.0,84,0.00,,SKC,0.00,VWS V14.01,2013-11-27 12:47:00,
2013-11-27 06:52:00,7.3,3.5,30.32,West,266,0.0,1.0,84,0.00,,SKC,0.00,VWS V14.01,2013-11-27 12:52:00,
2013-11-27 06:57:00,7.5,3.7,30.32,WNW,282,1.0,2.0,84,0.00,,SKC,0.00,VWS V14.01,2013-11-27 12:57:00,
2013-11-27 07:02:00,7.8,4.0,30.32,West,270,0.0,1.0,84,0.00,,SKC,0.00,VWS V14.01,2013-11-27 13:02:00,
2013-11-27 07:07:00,7.8,4.0,30.32,NW,321,0.0,2.0,84,0.00,,SKC,0.00,VWS V14.01,2013-11-27 13:07:00,
2013-11-27 07:12:00,7.9,4.1,30.32,WNW,294,1.0,2.0,84,0.00,,SKC,0.00,VWS V14.01,2013-11-27 13:12:00,
2013-11-27 07:17:00,8.0,4.2,30.32,West,281,0.0,2.0,84,0.00,,SKC,0.00,VWS V14.01,2013-11-27 13:17:00,
2013-11-27 07:22:00,8.1,4.3,30.33,West,267,0.0,2.0,84,0.00,,SKC,0.00,VWS V14.01,2013-11-27 13:22:00,
2013-11-27 07:27:00,8.3,4.5,30.33,NW,304,2.0,2.0,84,0.00,,SKC,0.00,VWS V14.01,2013-11-27 13:27:00,
2013-11-27 07:32:00,8.8,5.0,30.33,WNW,299,0.0,3.0,84,0.00,,SKC,0.00,VWS V14.01,2013-11-27 13:32:00,
2013-11-27 07:37:00,9.3,5.2,30.33,West,271,1.0,4.0,83,0.00,,SKC,0.00,VWS V14.01,2013-11-27 13:37:00,
2013-11-27 07:42:00,9.8,5.7,30.33,NW,304,3.0,5.0,83,0.00,,SKC,0.00,VWS V14.01,2013-11-27 13:42:00,
2013-11-27 07:47:00,10.0,5.6,30.33,WNW,288,1.0,5.0,82,0.00,,SKC,0.00,VWS V14.01,2013-11-27 13:47:00,
2013-11-27 07:52:00,10.3,5.9,30.33,WNW,302,0.0,5.0,82,0.00,,SKC,0.00,VWS V14.01,2013-11-27 13:52:00,
2013-11-27 07:57:00,10.6,5.9,30.33,WNW,298,0.0,5.0,81,0.00,,SKC,0.00,VWS V14.01,2013-11-27 13:57:00,
2013-11-27 08:02:00,11.0,6.3,30.33,WNW,299,0.0,1.0,81,0.00,,SKC,0.00,VWS V14.01,2013-11-27 14:02:00,
2013-11-27 08:07:00,11.5,6.8,30.33,WNW,301,4.0,5.0,81,0.00,,SKC,0.00,VWS V14.01,2013-11-27 14:07:00,
2013-11-27 08:12:00,11.9,6.9,30.33,NW,316,3.0,5.0,80,0.00,,SKC,0.00,VWS V14.01,2013-11-27 14:12:00,
2013-11-27 08:17:00,12.2,6.9,30.33,NNW,341,2.0,5.0,79,0.00,,SKC,0.00,VWS V14.01,2013-11-27 14:17:00,
2013-11-27 08:22:00,12.5,7.2,30.33,NW,320,6.0,6.0,79,0.00,,SKC,0.00,VWS V14.01,2013-11-27 14:22:00,
2013-11-27 08:27:00,12.7,7.4,30.33,North,8,2.0,6.0,79,0.00,,SKC,0.00,VWS V14.01,2013-11-27 14:27:00,
2013-11-27 08:32:00,13.1,7.5,30.33,NW,323,6.0,6.0,78,0.00,,SKC,0.00,VWS V14.01,2013-11-27 14:32:00,
2013-11-27 08:37:00,13.2,7.6,30.33,West,277,3.0,7.0,78,0.00,,SKC,0.00,VWS V14.01,2013-11-27 14:37:00,
2013-11-27 08:42:00,13.4,7.8,30.34,NW,304,4.0,7.0,78,0.00,,SKC,0.00,VWS V14.01,2013-11-27 14:42:00,
2013-11-27 08:47:00,13.6,8.0,30.34,NNW,338,4.0,8.0,78,0.00,,SKC,0.00,VWS V14.01,2013-11-27 14:47:00,
2013-11-27 08:52:00,13.7,8.1,30.34,NNW,335,8.0,9.0,78,0.00,,SKC,0.00,VWS V14.01,2013-11-27 14:52:00,
2013-11-27 08:57:00,14.0,8.4,30.34,NW,304,5.0,10.0,78,0.00,,SKC,0.00,VWS V14.01,2013-11-27 14:57:00,
2013-11-27 09:02:00,14.2,8.6,30.33,WNW,297,5.0,6.0,78,0.00,,SKC,0.00,VWS V14.01,2013-11-27 15:02:00,
2013-11-27 09:07:00,14.5,8.6,30.33,NW,307,8.0,8.0,77,0.00,,SKC,0.00,VWS V14.01,2013-11-27 15:07:00,
2013-11-27 09:12:00,14.7,8.8,30.33,NNW,328,2.0,8.0,77,0.00,,SKC,0.00,VWS V14.01,2013-11-27 15:12:00,
2013-11-27 09:17:00,15.0,9.1,30.33,NW,316,9.0,9.0,77,0.00,,SKC,0.00,VWS V14.01,2013-11-27 15:17:00,
2013-11-27 09:22:00,15.2,9.0,30.33,NW,322,5.0,9.0,76,0.00,,SKC,0.00,VWS V14.01,2013-11-27 15:22:00,
2013-11-27 09:27:00,15.2,9.0,30.33,NW,311,4.0,9.0,76,0.00,,SKC,0.00,VWS V14.01,2013-11-27 15:27:00,
2013-11-27 09:32:00,15.4,9.2,30.33,NNW,339,5.0,5.0,76,0.00,,SKC,0.00,VWS V14.01,2013-11-27 15:32:00,
2013-11-27 09:37:00,15.4,9.2,30.33,NNW,345,2.0,9.0,76,0.00,,SKC,0.00,VWS V14.01,2013-11-27 15:37:00,
2013-11-27 09:42:00,15.7,9.5,30.33,NW,318,6.0,9.0,76,0.00,,SKC,0.00,VWS V14.01,2013-11-27 15:42:00,
2013-11-27 09:47:00,16.0,9.8,30.33,NW,325,2.0,11.0,76,0.00,,SKC,0.00,VWS V14.01,2013-11-27 15:47:00,
2013-11-27 09:52:00,16.2,10.0,30.33,NNW,347,5.0,11.0,76,0.00,,SKC,0.00,VWS V14.01,2013-11-27 15:52:00,
2013-11-27 09:57:00,16.3,10.1,30.33,NW,323,4.0,11.0,76,0.00,,SKC,0.00,VWS V14.01,2013-11-27 15:57:00,
2013-11-27 10:02:00,16.6,10.4,30.33,NW,319,3.0,7.0,76,0.00,,SKC,0.00,VWS V14.01,2013-11-27 16:02:00,
2013-11-27 10:07:00,16.9,10.7,30.33,NNE,21,0.0,9.0,76,0.00,,SKC,0.00,VWS V14.01,2013-11-27 16:07:00,
2013-11-27 10:12:00,17.1,10.6,30.33,NW,326,4.0,9.0,75,0.00,,SKC,0.00,VWS V14.01,2013-11-27 16:12:00,
2013-11-27 10:17:00,17.0,10.5,30.33,NW,315,7.0,9.0,75,0.00,,SKC,0.00,VWS V14.01,2013-11-27 16:17:00,
2013-11-27 10:22:00,17.0,10.5,30.33,NW,316,8.0,9.0,75,0.00,,SKC,0.00,VWS V14.01,2013-11-27 16:22:00,
2013-11-27 10:27:00,17.3,11.1,30.33,North,349,6.0,10.0,76,0.00,,SKC,0.00,VWS V14.01,2013-11-27 16:27:00,
2013-11-27 10:32:00,17.6,11.0,30.33,NNE,20,3.0,5.0,75,0.00,,SKC,0.00,VWS V14.01,2013-11-27 16:32:00,
2013-11-27 10:37:00,17.8,11.2,30.33,NW,323,5.0,8.0,75,0.00,,SKC,0.00,VWS V14.01,2013-11-27 16:37:00,
2013-11-27 10:42:00,17.8,11.2,30.33,WNW,299,6.0,11.0,75,0.00,,SKC,0.00,VWS V14.01,2013-11-27 16:42:00,
2013-11-27 10:47:00,17.9,11.0,30.32,NW,316,8.0,11.0,74,0.00,,SKC,0.00,VWS V14.01,2013-11-27 16:47:00,
2013-11-27 10:52:00,18.0,11.4,30.32,NW,316,6.0,11.0,75,0.00,,SKC,0.00,VWS V14.01,2013-11-27 16:52:00,
2013-11-27 10:57:00,18.0,11.1,30.32,WNW,298,7.0,11.0,74,0.00,,SKC,0.00,VWS V14.01,2013-11-27 16:57:00,
2013-11-27 11:02:00,18.2,11.6,30.32,NNW,333,6.0,8.0,75,0.00,,SKC,0.00,VWS V14.01,2013-11-27 17:02:00,
2013-11-27 11:07:00,18.6,12.0,30.31,NNW,328,3.0,8.0,75,0.00,,SKC,0.00,VWS V14.01,2013-11-27 17:07:00,
2013-11-27 11:12:00,18.7,11.8,30.31,NW,307,5.0,8.0,74,0.00,,SKC,0.00,VWS V14.01,2013-11-27 17:12:00,
2013-11-27 11:17:00,19.0,12.1,30.31,NW,304,7.0,8.0,74,0.00,,SKC,0.00,VWS V14.01,2013-11-27 17:17:00,
2013-11-27 11:22:00,19.3,12.4,30.31,NW,307,3.0,8.0,74,0.00,,SKC,0.00,VWS V14.01,2013-11-27 17:22:00,
2013-11-27 11:27:00,19.5,12.3,30.31,WNW,294,5.0,8.0,73,0.00,,SKC,0.00,VWS V14.01,2013-11-27 17:27:00,
2013-11-27 11:32:00,19.7,12.5,30.31,NW,307,6.0,7.0,73,0.00,,SKC,0.00,VWS V14.01,2013-11-27 17:32:00,
2013-11-27 11:37:00,19.9,13.0,30.31,NW,318,4.0,7.0,74,0.00,,SKC,0.00,VWS V14.01,2013-11-27 17:37:00,
2013-11-27 11:42:00,20.4,13.1,30.31,North,360,5.0,7.0,73,0.00,,SKC,0.00,VWS V14.01,2013-11-27 17:42:00,
2013-11-27 11:47:00,20.6,13.0,30.30,NNW,333,7.0,8.0,72,0.00,,SKC,0.00,VWS V14.01,2013-11-27 17:47:00,
2013-11-27 11:52:00,20.6,13.0,30.30,NNW,330,5.0,9.0,72,0.00,,SKC,0.00,VWS V14.01,2013-11-27 17:52:00,
2013-11-27 11:57:00,20.7,13.4,30.30,NNW,328,4.0,9.0,73,0.00,,SKC,0.00,VWS V14.01,2013-11-27 17:57:00,
2013-11-27 12:02:00,20.9,13.3,30.30,WNW,302,4.0,7.0,72,0.00,,SKC,0.00,VWS V14.01,2013-11-27 18:02:00,
2013-11-27 12:07:00,21.2,13.6,30.30,WNW,299,5.0,8.0,72,0.00,,SKC,0.00,VWS V14.01,2013-11-27 18:07:00,
2013-11-27 12:12:00,21.1,13.5,30.30,NW,307,3.0,10.0,72,0.00,,SKC,0.00,VWS V14.01,2013-11-27 18:12:00,
2013-11-27 12:17:00,21.4,13.8,30.29,NW,305,8.0,10.0,72,0.00,,SKC,0.00,VWS V14.01,2013-11-27 18:17:00,
2013-11-27 12:22:00,21.2,13.3,30.29,North,353,2.0,10.0,71,0.00,,SKC,0.00,VWS V14.01,2013-11-27 18:22:00,
2013-11-27 12:27:00,21.6,14.0,30.29,NNW,333,2.0,10.0,72,0.00,,SKC,0.00,VWS V14.01,2013-11-27 18:27:00,
2013-11-27 12:32:00,21.8,13.9,30.29,NNW,336,4.0,4.0,71,0.00,,SKC,0.00,VWS V14.01,2013-11-27 18:32:00,
2013-11-27 12:37:00,22.0,14.1,30.28,NW,310,4.0,9.0,71,0.00,,SKC,0.00,VWS V14.01,2013-11-27 18:37:00,
2013-11-27 12:42:00,22.0,13.7,30.28,WNW,299,5.0,9.0,70,0.00,,SKC,0.00,VWS V14.01,2013-11-27 18:42:00,
2013-11-27 12:47:00,22.2,13.9,30.29,NE,53,2.0,9.0,70,0.00,,SKC,0.00,VWS V14.01,2013-11-27 18:47:00,
2013-11-27 12:52:00,22.3,14.0,30.29,NW,321,4.0,9.0,70,0.00,,SKC,0.00,VWS V14.01,2013-11-27 18:52:00,
2013-11-27 12:56:00,22.5,14.5,30.29,WNW,288,4.0,9.0,71,0.00,,SKC,0.00,VWS V14.01,2013-11-27 18:56:00,
2013-11-27 13:01:00,22.7,14.4,30.29,NNW,339,3.0,5.0,70,0.00,,SKC,0.00,VWS V14.01,2013-11-27 19:01:00,
2013-11-27 13:06:00,22.9,14.6,30.28,WNW,295,4.0,6.0,70,0.00,,SKC,0.00,VWS V14.01,2013-11-27 19:06:00,
2013-11-27 13:11:00,23.0,14.4,30.28,WNW,283,4.0,6.0,69,0.00,,SKC,0.00,VWS V14.01,2013-11-27 19:11:00,
2013-11-27 13:16:00,23.2,14.6,30.28,West,281,3.0,6.0,69,0.00,,SKC,0.00,VWS V14.01,2013-11-27 19:16:00,
2013-11-27 13:21:00,23.4,14.8,30.28,WNW,283,3.0,6.0,69,0.00,,SKC,0.00,VWS V14.01,2013-11-27 19:21:00,
2013-11-27 13:26:00,23.7,14.7,30.27,NW,312,6.0,6.0,68,0.00,,SKC,0.00,VWS V14.01,2013-11-27 19:26:00,
2013-11-27 13:31:00,23.7,14.4,30.27,West,281,2.0,6.0,67,0.00,,SKC,0.00,VWS V14.01,2013-11-27 19:31:00,
2013-11-27 13:36:00,23.7,14.4,30.27,NW,307,7.0,7.0,67,0.00,,SKC,0.00,VWS V14.01,2013-11-27 19:36:00,
2013-11-27 13:41:00,23.7,14.4,30.27,WSW,250,1.0,7.0,67,0.00,,SKC,0.00,VWS V14.01,2013-11-27 19:41:00,
2013-11-27 13:46:00,23.8,14.1,30.27,NW,314,1.0,7.0,66,0.00,,SKC,0.00,VWS V14.01,2013-11-27 19:46:00,
2013-11-27 13:51:00,24.2,14.8,30.27,WNW,283,4.0,7.0,67,0.00,,SKC,0.00,VWS V14.01,2013-11-27 19:51:00,
2013-11-27 13:56:00,24.4,14.7,30.26,NW,324,3.0,7.0,66,0.00,,SKC,0.00,VWS V14.01,2013-11-27 19:56:00,
2013-11-27 14:01:00,24.5,14.8,30.26,NW,316,2.0,2.0,66,0.00,,SKC,0.00,VWS V14.01,2013-11-27 20:01:00,
2013-11-27 14:06:00,24.6,14.5,30.26,WNW,290,0.0,4.0,65,0.00,,SKC,0.00,VWS V14.01,2013-11-27 20:06:00,
2013-11-27 14:11:00,24.4,14.3,30.26,West,267,2.0,5.0,65,0.00,,SKC,0.00,VWS V14.01,2013-11-27 20:11:00,
2013-11-27 14:16:00,24.5,14.4,30.25,ENE,72,1.0,5.0,65,0.00,,SKC,0.00,VWS V14.01,2013-11-27 20:16:00,
2013-11-27 14:21:00,24.8,14.4,30.25,NW,304,3.0,6.0,64,0.00,,SKC,0.00,VWS V14.01,2013-11-27 20:21:00,
2013-11-27 14:26:00,24.9,14.1,30.25,North,349,2.0,6.0,63,0.00,,SKC,0.00,VWS V14.01,2013-11-27 20:26:00,
2013-11-27 14:31:00,25.2,14.8,30.25,West,273,0.0,3.0,64,0.00,,SKC,0.00,VWS V14.01,2013-11-27 20:31:00,
2013-11-27 14:36:00,25.7,14.5,30.25,NNW,329,2.0,3.0,62,0.00,,SKC,0.00,VWS V14.01,2013-11-27 20:36:00,
2013-11-27 14:41:00,25.4,14.9,30.25,NW,323,2.0,5.0,64,0.00,,SKC,0.00,VWS V14.01,2013-11-27 20:41:00,
2013-11-27 14:46:00,25.5,14.3,30.25,NW,319,0.0,5.0,62,0.00,,SKC,0.00,VWS V14.01,2013-11-27 20:46:00,
2013-11-27 14:51:00,25.8,14.6,30.25,SSW,204,1.0,5.0,62,0.00,,SKC,0.00,VWS V14.01,2013-11-27 20:51:00,
2013-11-27 14:56:00,26.0,14.4,30.25,WSW,256,2.0,5.0,61,0.00,,SKC,0.00,VWS V14.01,2013-11-27 20:56:00,
2013-11-27 15:01:00,26.1,14.9,30.25,NW,317,1.0,1.0,62,0.00,,SKC,0.00,VWS V14.01,2013-11-27 21:01:00,
2013-11-27 15:06:00,26.1,14.5,30.25,WSW,256,4.0,5.0,61,0.00,,SKC,0.00,VWS V14.01,2013-11-27 21:06:00,
2013-11-27 15:11:00,25.8,14.2,30.25,WNW,290,2.0,5.0,61,0.00,,SKC,0.00,VWS V14.01,2013-11-27 21:11:00,
2013-11-27 15:16:00,25.8,14.6,30.25,West,259,1.0,5.0,62,0.00,,SKC,0.00,VWS V14.01,2013-11-27 21:16:00,
2013-11-27 15:21:00,25.7,14.1,30.25,West,265,3.0,6.0,61,0.00,,SKC,0.00,VWS V14.01,2013-11-27 21:21:00,
2013-11-27 15:26:00,25.4,13.5,30.25,West,263,1.0,6.0,60,0.00,,SKC,0.00,VWS V14.01,2013-11-27 21:26:00,
2013-11-27 15:31:00,25.4,13.5,30.25,North,5,0.0,3.0,60,0.00,,SKC,0.00,VWS V14.01,2013-11-27 21:31:00,
2013-11-27 15:36:00,25.2,13.3,30.25,NNW,333,0.0,5.0,60,0.00,,SKC,0.00,VWS V14.01,2013-11-27 21:36:00,
2013-11-27 15:41:00,25.0,13.8,30.25,WNW,297,0.0,5.0,62,0.00,,SKC,0.00,VWS V14.01,2013-11-27 21:41:00,
2013-11-27 15:46:00,25.0,13.5,30.25,NW,325,3.0,5.0,61,0.00,,SKC,0.00,VWS V14.01,2013-11-27 21:46:00,
2013-11-27 15:51:00,24.7,12.8,30.25,WNW,287,0.0,5.0,60,0.00,,SKC,0.00,VWS V14.01,2013-11-27 21:51:00,
2013-11-27 15:56:00,24.6,13.1,30.25,North,353,0.0,5.0,61,0.00,,SKC,0.00,VWS V14.01,2013-11-27 21:56:00,
2013-11-27 16:01:00,24.6,13.1,30.25,West,259,1.0,1.0,61,0.00,,SKC,0.00,VWS V14.01,2013-11-27 22:01:00,
2013-11-27 16:06:00,24.6,13.1,30.25,NNW,342,1.0,3.0,61,0.00,,SKC,0.00,VWS V14.01,2013-11-27 22:06:00,
2013-11-27 16:11:00,24.4,13.3,30.25,West,267,2.0,3.0,62,0.00,,SKC,0.00,VWS V14.01,2013-11-27 22:11:00,
2013-11-27 16:16:00,24.1,13.3,30.25,West,270,0.0,3.0,63,0.00,,SKC,0.00,VWS V14.01,2013-11-27 22:16:00,
2013-11-27 16:21:00,23.8,13.4,30.25,West,264,1.0,3.0,64,0.00,,SKC,0.00,VWS V14.01,2013-11-27 22:21:00,
2013-11-27 16:26:00,23.5,13.1,30.25,West,274,1.0,3.0,64,0.00,,SKC,0.00,VWS V14.01,2013-11-27 22:26:00,
2013-11-27 16:31:00,23.2,12.8,30.25,West,269,1.0,1.0,64,0.00,,SKC,0.00,VWS V14.01,2013-11-27 22:31:00,
2013-11-27 16:36:00,22.9,12.9,30.25,WSW,243,1.0,1.0,65,0.00,,SKC,0.00,VWS V14.01,2013-11-27 22:36:00,
2013-11-27 16:41:00,22.6,12.6,30.25,West,260,2.0,3.0,65,0.00,,SKC,0.00,VWS V14.01,2013-11-27 22:41:00,
2013-11-27 16:46:00,22.3,13.0,30.25,WSW,250,1.0,4.0,67,0.00,,SKC,0.00,VWS V14.01,2013-11-27 22:46:00,
2013-11-27 16:51:00,22.2,13.3,30.25,SW,231,2.0,4.0,68,0.00,,SKC,0.00,VWS V14.01,2013-11-27 22:51:00,
2013-11-27 16:56:00,22.1,13.5,30.25,SW,225,2.0,4.0,69,0.00,,SKC,0.00,VWS V14.01,2013-11-27 22:56:00,
2013-11-27 17:01:00,22.0,13.7,30.25,WSW,257,2.0,3.0,70,0.00,,SKC,0.00,VWS V14.01,2013-11-27 23:01:00,
2013-11-27 17:06:00,21.9,13.6,30.25,West,259,1.0,3.0,70,0.00,,SKC,0.00,VWS V14.01,2013-11-27 23:06:00,
2013-11-27 17:11:00,21.9,14.0,30.25,SW,234,0.0,3.0,71,0.00,,SKC,0.00,VWS V14.01,2013-11-27 23:11:00,
2013-11-27 17:16:00,21.9,14.0,30.24,SW,225,0.0,4.0,71,0.00,,SKC,0.00,VWS V14.01,2013-11-27 23:16:00,
2013-11-27 17:21:00,21.8,14.2,30.24,SW,226,0.0,4.0,72,0.00,,SKC,0.00,VWS V14.01,2013-11-27 23:21:00,
2013-11-27 17:26:00,21.8,14.2,30.25,WSW,257,0.0,4.0,72,0.00,,SKC,0.00,VWS V14.01,2013-11-27 23:26:00,
2013-11-27 17:31:00,21.8,14.2,30.25,West,278,3.0,3.0,72,0.00,,SKC,0.00,VWS V14.01,2013-11-27 23:31:00,
2013-11-27 17:36:00,21.8,14.2,30.25,West,273,1.0,3.0,72,0.00,,SKC,0.00,VWS V14.01,2013-11-27 23:36:00,
2013-11-27 17:41:00,21.8,14.5,30.25,West,260,0.0,3.0,73,0.00,,SKC,0.00,VWS V14.01,2013-11-27 23:41:00,
2013-11-27 17:46:00,21.7,14.4,30.26,SW,232,0.0,3.0,73,0.00,,SKC,0.00,VWS V14.01,2013-11-27 23:46:00,
2013-11-27 17:51:00,21.7,14.1,30.25,WSW,253,0.0,3.0,72,0.00,,SKC,0.00,VWS V14.01,2013-11-27 23:51:00,
2013-11-27 17:56:00,21.7,14.1,30.24,WSW,250,0.0,3.0,72,0.00,,SKC,0.00,VWS V14.01,2013-11-27 23:56:00,
2013-11-27 18:01:00,21.5,14.2,30.24,WSW,250,0.0,0.0,73,0.00,,SKC,0.00,VWS V14.01,2013-11-28 00:01:00,
2013-11-27 18:06:00,21.4,14.4,30.25,WSW,250,0.0,0.0,74,0.00,,SKC,0.00,VWS V14.01,2013-11-28 00:06:00,
2013-11-27 18:11:00,21.4,14.1,30.25,WSW,248,0.0,1.0,73,0.00,,SKC,0.00,VWS V14.01,2013-11-28 00:11:00,
2013-11-27 18:16:00,21.3,14.0,30.24,South,185,0.0,1.0,73,0.00,,SKC,0.00,VWS V14.01,2013-11-28 00:16:00,
2013-11-27 18:21:00,21.2,14.2,30.24,South,185,0.0,1.0,74,0.00,,SKC,0.00,VWS V14.01,2013-11-28 00:21:00,
2013-11-27 18:26:00,21.1,14.1,30.24,SE,136,0.0,1.0,74,0.00,,SKC,0.00,VWS V14.01,2013-11-28 00:26:00,
2013-11-27 18:31:00,21.1,14.1,30.25,SW,220,0.0,1.0,74,0.00,,SKC,0.00,VWS V14.01,2013-11-28 00:31:00,
2013-11-27 18:36:00,21.0,14.0,30.24,ESE,116,1.0,1.0,74,0.00,,SKC,0.00,VWS V14.01,2013-11-28 00:36:00,
2013-11-27 18:41:00,21.1,14.4,30.24,SSE,148,0.0,1.0,75,0.00,,SKC,0.00,VWS V14.01,2013-11-28 00:41:00,
2013-11-27 18:46:00,21.2,14.5,30.23,SSE,153,0.0,1.0,75,0.00,,SKC,0.00,VWS V14.01,2013-11-28 00:46:00,
2013-11-27 18:51:00,21.3,14.9,30.23,SSE,159,0.0,2.0,76,0.00,,SKC,0.00,VWS V14.01,2013-11-28 00:51:00,
2013-11-27 18:56:00,21.4,14.7,30.24,SSW,207,0.0,2.0,75,0.00,,SKC,0.00,VWS V14.01,2013-11-28 00:56:00,
2013-11-27 19:01:00,21.6,14.6,30.24,SSW,207,0.0,0.0,74,0.00,,SKC,0.00,VWS V14.01,2013-11-28 01:01:00,
2013-11-27 19:06:00,21.6,14.9,30.24,SSW,207,0.0,0.0,75,0.00,,SKC,0.00,VWS V14.01,2013-11-28 01:06:00,
2013-11-27 19:11:00,21.5,15.1,30.25,SSW,209,0.0,1.0,76,0.00,,SKC,0.00,VWS V14.01,2013-11-28 01:11:00,
2013-11-27 19:16:00,21.4,14.7,30.24,SSW,209,0.0,1.0,75,0.00,,SKC,0.00,VWS V14.01,2013-11-28 01:16:00,
2013-11-27 19:21:00,21.2,14.5,30.24,SSW,208,0.0,1.0,75,0.00,,SKC,0.00,VWS V14.01,2013-11-28 01:21:00,
2013-11-27 19:26:00,21.0,14.3,30.23,SSW,209,0.0,1.0,75,0.00,,SKC,0.00,VWS V14.01,2013-11-28 01:26:00,
2013-11-27 19:31:00,21.0,14.6,30.23,SE,141,0.0,0.0,76,0.00,,SKC,0.00,VWS V14.01,2013-11-28 01:31:00,
2013-11-27 19:36:00,21.1,15.3,30.22,SE,145,0.0,1.0,78,0.00,,SKC,0.00,VWS V14.01,2013-11-28 01:36:00,
2013-11-27 19:41:00,21.2,15.1,30.22,SSE,152,0.0,2.0,77,0.00,,SKC,0.00,VWS V14.01,2013-11-28 01:41:00,
2013-11-27 19:46:00,21.3,14.9,30.22,SSW,205,0.0,2.0,76,0.00,,SKC,0.00,VWS V14.01,2013-11-28 01:46:00,
2013-11-27 19:51:00,21.4,14.7,30.22,SW,214,0.0,2.0,75,0.00,,SKC,0.00,VWS V14.01,2013-11-28 01:51:00,
2013-11-27 19:56:00,21.4,14.7,30.22,SW,214,0.0,2.0,75,0.00,,SKC,0.00,VWS V14.01,2013-11-28 01:56:00,
2013-11-27 20:01:00,21.4,14.7,30.22,SW,214,0.0,0.0,75,0.00,,SKC,0.00,VWS V14.01,2013-11-28 02:01:00,
2013-11-27 20:06:00,21.3,14.6,30.22,SSE,152,0.0,1.0,75,0.00,,SKC,0.00,VWS V14.01,2013-11-28 02:06:00,
2013-11-27 20:11:00,21.4,14.7,30.22,SSE,153,0.0,2.0,75,0.00,,SKC,0.00,VWS V14.01,2013-11-28 02:11:00,
2013-11-27 20:16:00,21.4,14.7,30.23,SE,138,0.0,2.0,75,0.00,,SKC,0.00,VWS V14.01,2013-11-28 02:16:00,
2013-11-27 20:21:00,21.4,14.7,30.23,SE,138,0.0,2.0,75,0.00,,SKC,0.00,VWS V14.01,2013-11-28 02:21:00,
2013-11-27 20:26:00,21.3,14.9,30.23,SE,138,0.0,2.0,76,0.00,,SKC,0.00,VWS V14.01,2013-11-28 02:26:00,
2013-11-27 20:31:00,21.4,14.7,30.22,ESE,114,0.0,1.0,75,0.00,,SKC,0.00,VWS V14.01,2013-11-28 02:31:00,
2013-11-27 20:36:00,21.5,14.8,30.20,SSE,148,0.0,4.0,75,0.00,,SKC,0.00,VWS V14.01,2013-11-28 02:36:00,
2013-11-27 20:41:00,21.6,14.9,30.20,East,89,1.0,4.0,75,0.00,,SKC,0.00,VWS V14.01,2013-11-28 02:41:00,
2013-11-27 20:46:00,21.6,14.9,30.20,South,177,0.0,4.0,75,0.00,,SKC,0.00,VWS V14.01,2013-11-28 02:46:00,
2013-11-27 20:51:00,21.7,14.7,30.20,SE,144,2.0,4.0,74,0.00,,SKC,0.00,VWS V14.01,2013-11-28 02:51:00,
2013-11-27 20:56:00,21.8,14.5,30.21,SSE,150,0.0,4.0,73,0.00,,SKC,0.00,VWS V14.01,2013-11-28 02:56:00,
2013-11-27 21:01:00,21.9,14.6,30.22,SSW,212,1.0,1.0,73,0.00,,SKC,0.00,VWS V14.01,2013-11-28 03:01:00,
2013-11-27 21:06:00,21.9,14.6,30.23,ESE,107,0.0,2.0,73,0.00,,SKC,0.00,VWS V14.01,2013-11-28 03:06:00,
2013-11-27 21:11:00,21.9,14.6,30.24,ESE,107,0.0,2.0,73,0.00,,SKC,0.00,VWS V14.01,2013-11-28 03:11:00,
2013-11-27 21:16:00,21.9,14.6,30.24,SW,219,0.0,2.0,73,0.00,,SKC,0.00,VWS V14.01,2013-11-28 03:16:00,
2013-11-27 21:21:00,21.9,14.6,30.24,SW,221,0.0,2.0,73,0.00,,SKC,0.00,VWS V14.01,2013-11-28 03:21:00,
2013-11-27 21:26:00,21.8,15.1,30.24,West,259,0.0,2.0,75,0.00,,SKC,0.00,VWS V14.01,2013-11-28 03:26:00,
2013-11-27 21:31:00,21.8,15.4,30.25,West,259,0.0,0.0,76,0.00,,SKC,0.00,VWS V14.01,2013-11-28 03:31:00,
2013-11-27 21:36:00,21.7,15.0,30.25,West,259,0.0,0.0,75,0.00,,SKC,0.00,VWS V14.01,2013-11-28 03:36:00,
2013-11-27 21:41:00,21.7,15.0,30.25,West,259,0.0,0.0,75,0.00,,SKC,0.00,VWS V14.01,2013-11-28 03:41:00,
2013-11-27 21:46:00,21.7,15.3,30.25,WSW,258,0.0,0.0,76,0.00,,SKC,0.00,VWS V14.01,2013-11-28 03:46:00,
2013-11-27 21:51:00,21.6,14.9,30.25,WSW,258,0.0,0.0,75,0.00,,SKC,0.00,VWS V14.01,2013-11-28 03:51:00,
2013-11-27 21:56:00,21.6,14.9,30.25,West,259,0.0,0.0,75,0.00,,SKC,0.00,VWS V14.01,2013-11-28 03:56:00,
2013-11-27 22:01:00,21.6,14.9,30.24,West,259,0.0,0.0,75,0.00,,SKC,0.00,VWS V14.01,2013-11-28 04:01:00,
2013-11-27 22:06:00,21.7,15.0,30.24,SE,129,0.0,2.0,75,0.00,,SKC,0.00,VWS V14.01,2013-11-28 04:06:00,
2013-11-27 22:11:00,21.9,15.2,30.24,SSE,158,0.0,2.0,75,0.00,,SKC,0.00,VWS V14.01,2013-11-28 04:11:00,
2013-11-27 22:16:00,22.0,15.0,30.24,SE,134,1.0,3.0,74,0.00,,SKC,0.00,VWS V14.01,2013-11-28 04:16:00,
2013-11-27 22:21:00,22.2,15.2,30.24,SE,127,0.0,3.0,74,0.00,,SKC,0.00,VWS V14.01,2013-11-28 04:21:00,
2013-11-27 22:26:00,22.2,15.2,30.24,SSE,159,0.0,3.0,74,0.00,,SKC,0.00,VWS V14.01,2013-11-28 04:26:00,
2013-11-27 22:31:00,22.2,15.5,30.24,SSE,159,0.0,0.0,75,0.00,,SKC,0.00,VWS V14.01,2013-11-28 04:31:00,
2013-11-27 22:36:00,22.3,15.6,30.24,SSE,159,0.0,0.0,75,0.00,,SKC,0.00,VWS V14.01,2013-11-28 04:36:00,
2013-11-27 22:41:00,22.3,15.3,30.24,SE,126,0.0,2.0,74,0.00,,SKC,0.00,VWS V14.01,2013-11-28 04:41:00,
2013-11-27 22:46:00,22.3,15.3,30.24,SE,131,3.0,3.0,74,0.00,,SKC,0.00,VWS V14.01,2013-11-28 04:46:00,
2013-11-27 22:51:00,22.4,15.1,30.24,SE,135,0.0,3.0,73,0.00,,SKC,0.00,VWS V14.01,2013-11-28 04:51:00,
2013-11-27 22:56:00,22.5,15.2,30.23,SE,124,0.0,3.0,73,0.00,,SKC,0.00,VWS V14.01,2013-11-28 04:56:00,
2013-11-27 23:01:00,22.6,15.6,30.23,ESE,121,0.0,1.0,74,0.00,,SKC,0.00,VWS V14.01,2013-11-28 05:01:00,
2013-11-27 23:04:00,22.6,15.9,30.23,ESE,121,3.0,3.0,75,0.00,,SKC,0.00,VWS V14.01,2013-11-28 05:04:00,
2013-11-27 23:09:00,22.6,15.6,30.23,SSE,160,2.0,4.0,74,0.00,,SKC,0.00,VWS V14.01,2013-11-28 05:09:00,
2013-11-27 23:14:00,22.5,15.5,30.23,SSE,153,0.0,5.0,74,0.00,,SKC,0.00,VWS V14.01,2013-11-28 05:14:00,
2013-11-27 23:19:00,22.5,15.5,30.23,SE,127,0.0,5.0,74,0.00,,SKC,0.00,VWS V14.01,2013-11-28 05:19:00,
2013-11-27 23:24:00,22.5,15.5,30.23,SSE,155,0.0,5.0,74,0.00,,SKC,0.00,VWS V14.01,2013-11-28 05:24:00,
2013-11-27 23:29:00,22.5,15.5,30.23,ESE,120,4.0,6.0,74,0.00,,SKC,0.00,VWS V14.01,2013-11-28 05:29:00,
2013-11-27 23:34:00,22.5,15.5,30.23,SSE,164,0.0,3.0,74,0.00,,SKC,0.00,VWS V14.01,2013-11-28 05:34:00,
2013-11-27 23:39:00,22.5,15.5,30.23,South,170,3.0,3.0,74,0.00,,SKC,0.00,VWS V14.01,2013-11-28 05:39:00,
2013-11-27 23:44:00,22.4,15.4,30.23,SE,134,2.0,4.0,74,0.00,,SKC,0.00,VWS V14.01,2013-11-28 05:44:00,
2013-11-27 23:49:00,22.3,15.3,30.23,SSE,158,0.0,4.0,74,0.00,,SKC,0.00,VWS V14.01,2013-11-28 05:49:00,
2013-11-27 23:54:00,22.3,15.3,30.22,ESE,114,0.0,4.0,74,0.00,,SKC,0.00,VWS V14.01,2013-11-28 05:54:00,
2013-11-27 23:59:00,22.3,15.3,30.22,SE,131,1.0,4.0,74,0.00,,SKC,0.00,VWS V14.01,2013-11-28 05:59:00,